Time;durP1;ratioP1;P1;durP2;ratioP2;P2;SDS_P1;SDS_P2;PMS_P1;PMS_P2;Temp;Humidity;BMP_temperature;BMP_pressure;BME280_temperature;BME280_humidity;BME280_pressure;Samples;Min_cycle;Max_cycle;Signal;HPM_P1;HPM_P2
2022/08/12 00:44:26;;;;;;;3.50;2.00;;;;;;;;;;2292844;58;21307;-76
2022/08/12 00:46:55;;;;;;;3.92;2.08;;;;;;;;;;2527238;55;21052;-76
2022/08/12 00:49:22;;;;;;;3.25;2.03;;;;;;;;;;2291733;58;21195;-76
2022/08/12 00:52:08;;;;;;;3.15;2.22;;;;;;;;;;2292245;58;21060;-76
2022/08/12 00:54:37;;;;;;;3.40;1.98;;;;;;;;;;2526902;55;21127;-77
2022/08/12 00:57:06;;;;;;;2.80;1.95;;;;;;;;;;2291168;58;21335;-77
2022/08/12 00:59:33;;;;;;;4.78;1.87;;;;;;;;;;2292688;58;21225;-77
2022/08/12 01:02:01;;;;;;;7.03;2.05;;;;;;;;;;2291276;58;21049;-76
2022/08/12 01:12:48;;;;;;;3.37;1.92;;;;;;;;;;2291783;58;21067;-77
2022/08/12 01:15:15;;;;;;;3.45;2.00;;;;;;;;;;2292004;58;21072;-76
2022/08/12 01:17:43;;;;;;;2.78;2.28;;;;;;;;;;2527055;55;21064;-79
2022/08/12 01:20:18;;;;;;;4.35;2.42;;;;;;;;;;2291316;58;21126;-78
2022/08/12 01:22:50;;;;;;;2.47;2.28;;;;;;;;;;2527175;55;21649;-77
2022/08/12 01:25:20;;;;;;;3.62;2.75;;;;;;;;;;2292158;58;21123;-78
2022/08/12 01:27:50;;;;;;;4.20;2.10;;;;;;;;;;2292178;58;21139;-77
2022/08/12 01:30:18;;;;;;;2.83;2.00;;;;;;;;;;2292356;58;21132;-77
2022/08/12 01:32:47;;;;;;;5.30;2.78;;;;;;;;;;2291034;58;21075;-79
2022/08/12 01:35:16;;;;;;;2.60;1.83;;;;;;;;;;2292185;58;21123;-77
2022/08/12 01:37:46;;;;;;;3.08;2.28;;;;;;;;;;2291761;58;21080;-76
2022/08/12 01:40:15;;;;;;;2.83;2.08;;;;;;;;;;2291743;58;21078;-79
2022/08/12 01:42:45;;;;;;;5.68;2.75;;;;;;;;;;2291993;58;21155;-77
2022/08/12 01:45:13;;;;;;;2.35;2.10;;;;;;;;;;2291123;58;21147;-80
2022/08/12 01:47:50;;;;;;;5.18;2.15;;;;;;;;;;2291693;58;21147;-76
2022/08/12 01:50:21;;;;;;;3.50;2.20;;;;;;;;;;2291898;58;21072;-76
2022/08/12 01:52:57;;;;;;;2.53;1.98;;;;;;;;;;2292354;58;21056;-77
2022/08/12 01:55:27;;;;;;;3.62;2.50;;;;;;;;;;2291388;58;21076;-78
2022/08/12 01:57:59;;;;;;;4.10;2.10;;;;;;;;;;2292282;58;21189;-76
2022/08/12 02:00:30;;;;;;;3.30;2.30;;;;;;;;;;2291421;58;21112;-78
2022/08/12 02:03:03;;;;;;;3.20;2.15;;;;;;;;;;2290206;58;21349;-80
2022/08/12 02:11:22;;;;;;;4.07;2.33;;;;;;;;;;2292430;58;21409;-80
2022/08/12 02:14:14;;;;;;;2.50;2.00;;;;;;;;;;2292193;58;21063;-78
2022/08/12 02:16:57;;;;;;;3.37;2.10;;;;;;;;;;2288028;58;21064;-77
2022/08/12 02:19:36;;;;;;;3.42;2.30;;;;;;;;;;2291486;58;21136;-77
2022/08/12 02:22:20;;;;;;;4.12;2.10;;;;;;;;;;2291916;58;21128;-78
2022/08/12 02:24:48;;;;;;;4.20;2.28;;;;;;;;;;2292422;58;21124;-78
2022/08/12 02:27:17;;;;;;;5.97;2.42;;;;;;;;;;2291802;58;21139;-78
2022/08/12 02:29:44;;;;;;;4.20;2.20;;;;;;;;;;2292259;58;21064;-77
2022/08/12 02:32:11;;;;;;;2.33;1.85;;;;;;;;;;2291866;58;21133;-78
2022/08/12 02:34:39;;;;;;;3.12;2.12;;;;;;;;;;2291522;58;21048;-77
2022/08/12 02:37:08;;;;;;;2.40;2.08;;;;;;;;;;2291092;58;21134;-77
2022/08/12 02:39:37;;;;;;;3.20;2.17;;;;;;;;;;2291841;58;21088;-80
2022/08/12 02:42:05;;;;;;;4.72;2.20;;;;;;;;;;2292188;58;21071;-78
2022/08/12 02:44:37;;;;;;;5.45;2.20;;;;;;;;;;2292379;58;21135;-78
2022/08/12 02:47:05;;;;;;;3.70;2.40;;;;;;;;;;2525956;55;21132;-77
2022/08/12 02:49:34;;;;;;;2.92;2.22;;;;;;;;;;2291750;58;21056;-77
2022/08/12 02:52:02;;;;;;;2.58;2.05;;;;;;;;;;2292191;58;21072;-77
2022/08/12 02:54:29;;;;;;;3.03;2.10;;;;;;;;;;2291009;58;21064;-77
2022/08/12 02:56:57;;;;;;;3.85;2.15;;;;;;;;;;2291088;58;21068;-78
2022/08/12 02:59:26;;;;;;;4.37;2.47;;;;;;;;;;2292525;58;21077;-78
2022/08/12 03:01:54;;;;;;;4.18;2.30;;;;;;;;;;2292005;58;21135;-78
2022/08/12 03:04:25;;;;;;;2.78;2.35;;;;;;;;;;2527616;55;21143;-78
2022/08/12 03:06:59;;;;;;;3.40;2.28;;;;;;;;;;2291898;58;21606;-77
2022/08/12 03:09:29;;;;;;;3.62;2.40;;;;;;;;;;2291814;58;21131;-77
2022/08/12 03:12:03;;;;;;;2.58;2.10;;;;;;;;;;2526672;55;21115;-77
2022/08/12 03:14:33;;;;;;;5.70;2.47;;;;;;;;;;2291510;58;21630;-78
2022/08/12 03:17:08;;;;;;;3.75;2.50;;;;;;;;;;2290809;58;21083;-78
2022/08/12 03:19:36;;;;;;;3.75;2.37;;;;;;;;;;2292285;58;21128;-78
2022/08/12 03:22:11;;;;;;;2.20;2.00;;;;;;;;;;2291317;58;21128;-77
2022/08/12 03:24:43;;;;;;;3.35;2.35;;;;;;;;;;2291795;58;21087;-78
2022/08/12 03:27:11;;;;;;;3.65;2.42;;;;;;;;;;2291138;58;21084;-79
2022/08/12 03:29:40;;;;;;;3.83;2.33;;;;;;;;;;2290764;58;21077;-77
2022/08/12 03:32:07;;;;;;;5.82;2.37;;;;;;;;;;2291643;58;21131;-79
2022/08/12 03:34:36;;;;;;;3.45;2.50;;;;;;;;;;2527013;55;21156;-80
2022/08/12 03:37:04;;;;;;;4.37;2.25;;;;;;;;;;2291700;58;21076;-79
2022/08/12 03:39:40;;;;;;;4.45;2.47;;;;;;;;;;2527400;54;22203;-77
2022/08/12 03:42:26;;;;;;;5.07;2.20;;;;;;;;;;2291129;58;21139;-78
2022/08/12 04:01:33;;;;;;;2.72;2.33;;;;;;;;;;2292154;58;21084;-79
2022/08/12 04:04:02;;;;;;;2.50;2.00;;;;;;;;;;2291819;58;21099;-78
2022/08/12 04:06:30;;;;;;;3.75;2.47;;;;;;;;;;2526153;55;21088;-78
2022/08/12 04:08:58;;;;;;;3.55;2.40;;;;;;;;;;2292267;58;21087;-79
2022/08/12 04:14:13;;;;;;;3.08;2.67;;;;;;;;;;2292077;58;21036;-79
2022/08/12 04:16:40;;;;;;;2.55;2.25;;;;;;;;;;2291110;58;21147;-79
2022/08/12 04:19:08;;;;;;;3.97;2.62;;;;;;;;;;2291591;58;21092;-78
2022/08/12 04:21:36;;;;;;;4.72;2.58;;;;;;;;;;2292930;58;21572;-79
2022/08/12 04:24:03;;;;;;;3.67;2.47;;;;;;;;;;2292866;58;21108;-78
2022/08/12 04:26:30;;;;;;;3.33;2.12;;;;;;;;;;2292012;58;21167;-79
2022/08/12 04:28:58;;;;;;;4.30;3.55;;;;;;;;;;2527363;55;21072;-79
2022/08/12 04:34:08;;;;;;;4.87;2.17;;;;;;;;;;2568282;54;22151;-79
2022/08/12 04:36:36;;;;;;;4.10;2.30;;;;;;;;;;2316613;58;21052;-79
2022/08/12 04:39:05;;;;;;;3.00;2.25;;;;;;;;;;2318447;58;21080;-79
2022/08/12 04:41:32;;;;;;;2.95;2.15;;;;;;;;;;2325663;57;21046;-79
2022/08/12 04:44:00;;;;;;;3.00;2.08;;;;;;;;;;2345954;57;21061;-79
2022/08/12 04:46:27;;;;;;;2.92;2.10;;;;;;;;;;2343956;57;21113;-78
2022/08/12 04:48:55;;;;;;;3.45;2.50;;;;;;;;;;2345338;57;21046;-78
2022/08/12 04:51:22;;;;;;;2.87;2.30;;;;;;;;;;2345960;57;21061;-80
2022/08/12 04:53:50;;;;;;;3.92;2.42;;;;;;;;;;2346392;57;21093;-78
2022/08/12 04:56:17;;;;;;;3.90;2.50;;;;;;;;;;2592547;53;21667;-79
2022/08/12 04:58:44;;;;;;;2.20;2.00;;;;;;;;;;2345556;57;21049;-79
2022/08/12 05:01:12;;;;;;;3.25;2.75;;;;;;;;;;2345831;57;21117;-78
2022/08/12 05:03:39;;;;;;;5.80;2.83;;;;;;;;;;2344145;57;21062;-78
2022/08/12 05:06:08;;;;;;;2.55;2.22;;;;;;;;;;2346252;57;21062;-80
2022/08/12 05:08:35;;;;;;;3.50;2.17;;;;;;;;;;2348915;57;21041;-81
2022/08/12 05:11:04;;;;;;;4.85;2.30;;;;;;;;;;2347309;57;21520;-82
2022/08/12 05:13:34;;;;;;;3.65;2.47;;;;;;;;;;2348127;57;21037;-80
2022/08/12 05:16:02;;;;;;;5.12;2.42;;;;;;;;;;2346657;57;21061;-80
2022/08/12 05:18:29;;;;;;;3.87;2.40;;;;;;;;;;2348777;57;21041;-80
2022/08/12 05:20:57;;;;;;;3.17;2.30;;;;;;;;;;2347273;57;21676;-80
2022/08/12 05:23:24;;;;;;;4.45;2.37;;;;;;;;;;2349071;57;21085;-81
2022/08/12 05:25:55;;;;;;;5.28;2.70;;;;;;;;;;2348304;57;21065;-80
2022/08/12 05:28:23;;;;;;;5.22;2.45;;;;;;;;;;2349633;57;21082;-80
2022/08/12 05:30:50;;;;;;;7.72;2.80;;;;;;;;;;2348906;57;21117;-80
2022/08/12 05:33:17;;;;;;;2.97;2.58;;;;;;;;;;2348944;57;21054;-80
2022/08/12 05:35:46;;;;;;;3.97;2.65;;;;;;;;;;2347390;57;21745;-80
2022/08/12 05:41:01;;;;;;;5.05;2.12;;;;;;;;;;2348924;57;20997;-79
2022/08/12 05:43:28;;;;;;;3.35;2.35;;;;;;;;;;2596164;53;21105;-79
2022/08/12 05:46:00;;;;;;;4.03;2.80;;;;;;;;;;2345060;57;21608;-78
2022/08/12 05:48:30;;;;;;;3.33;2.62;;;;;;;;;;2572141;52;21144;-78
2022/08/12 05:50:57;;;;;;;2.90;2.30;;;;;;;;;;2291712;58;21092;-79
2022/08/12 05:53:24;;;;;;;3.05;2.30;;;;;;;;;;2292091;58;21066;-77
2022/08/12 05:55:52;;;;;;;3.00;2.70;;;;;;;;;;2526893;54;21058;-78
2022/08/12 05:58:19;;;;;;;6.68;2.40;;;;;;;;;;2292653;58;21091;-78
2022/08/12 06:00:47;;;;;;;4.22;2.53;;;;;;;;;;2528213;54;21066;-79
2022/08/12 06:03:16;;;;;;;3.25;2.25;;;;;;;;;;2293241;58;21051;-79
2022/08/12 06:05:44;;;;;;;3.45;2.30;;;;;;;;;;2527538;55;21058;-79
2022/08/12 06:08:11;;;;;;;5.45;2.40;;;;;;;;;;2528277;54;21082;-79
2022/08/12 06:10:39;;;;;;;4.70;2.25;;;;;;;;;;2527594;55;21083;-78
2022/08/12 06:13:08;;;;;;;4.43;2.47;;;;;;;;;;2527969;55;21083;-79
2022/08/12 06:15:36;;;;;;;3.22;2.67;;;;;;;;;;2528178;55;21078;-79
2022/08/12 06:18:04;;;;;;;3.22;2.40;;;;;;;;;;2293841;58;21070;-78
2022/08/12 06:20:31;;;;;;;7.03;2.55;;;;;;;;;;2528517;54;21144;-77
2022/08/12 06:22:59;;;;;;;4.85;2.55;;;;;;;;;;2528926;54;21086;-76
2022/08/12 06:25:28;;;;;;;3.55;2.65;;;;;;;;;;2528251;54;21576;-79
2022/08/12 06:27:55;;;;;;;2.60;2.17;;;;;;;;;;2528727;54;21046;-77
2022/08/12 06:30:22;;;;;;;3.60;2.40;;;;;;;;;;2529238;55;21043;-80
2022/08/12 06:32:51;;;;;;;5.70;2.53;;;;;;;;;;2293417;58;21138;-80
2022/08/12 06:35:18;;;;;;;3.22;2.62;;;;;;;;;;2292632;58;21364;-80
2022/08/12 06:37:48;;;;;;;4.15;2.65;;;;;;;;;;2527524;54;21082;-80
2022/08/12 06:42:46;;;;;;;3.03;2.22;;;;;;;;;;2293829;58;21055;-79
2022/08/12 06:45:30;;;;;;;3.15;2.72;;;;;;;;;;2292929;58;21070;-78
2022/08/12 06:47:58;;;;;;;4.65;2.53;;;;;;;;;;2293432;58;21051;-77
2022/08/12 06:50:26;;;;;;;5.78;2.70;;;;;;;;;;2508622;54;21122;-77
2022/08/12 06:52:53;;;;;;;6.18;2.70;;;;;;;;;;2506105;54;21381;-79
2022/08/12 06:55:24;;;;;;;4.43;2.55;;;;;;;;;;2275065;59;21668;-79
2022/08/12 06:57:53;;;;;;;3.60;2.50;;;;;;;;;;2507487;54;21074;-79
2022/08/12 07:00:22;;;;;;;3.75;2.65;;;;;;;;;;2275924;59;21086;-79
2022/08/12 07:02:49;;;;;;;3.78;2.20;;;;;;;;;;2274769;59;21079;-79
2022/08/12 07:05:23;;;;;;;3.15;2.78;;;;;;;;;;2507153;54;21082;-78
2022/08/12 07:08:05;;;;;;;3.80;2.78;;;;;;;;;;2275489;59;21171;-78
2022/08/12 07:10:33;;;;;;;4.18;2.72;;;;;;;;;;2506169;55;21142;-79
2022/08/12 07:13:01;;;;;;;3.75;2.90;;;;;;;;;;2507339;54;21656;-79
2022/08/12 07:15:30;;;;;;;4.00;2.33;;;;;;;;;;2506683;54;21139;-79
2022/08/12 07:17:59;;;;;;;3.35;2.60;;;;;;;;;;2506485;54;21696;-77
2022/08/12 07:20:28;;;;;;;4.68;2.85;;;;;;;;;;2506867;55;21553;-78
2022/08/12 07:22:55;;;;;;;4.03;2.83;;;;;;;;;;2275488;59;21340;-77
2022/08/12 07:25:33;;;;;;;3.28;2.50;;;;;;;;;;2274923;59;21138;-79
2022/08/12 07:28:02;;;;;;;4.93;2.70;;;;;;;;;;2274995;59;21086;-78
2022/08/12 07:30:30;;;;;;;5.37;2.65;;;;;;;;;;2275457;59;21158;-79
2022/08/12 07:33:00;;;;;;;3.17;2.58;;;;;;;;;;2273511;59;21110;-79
2022/08/12 07:35:27;;;;;;;3.45;2.72;;;;;;;;;;2273378;59;21066;-79
2022/08/12 07:37:55;;;;;;;5.28;2.85;;;;;;;;;;2274172;59;21070;-79
2022/08/12 07:40:22;;;;;;;6.53;2.87;;;;;;;;;;2273453;59;21244;-79
2022/08/12 07:42:49;;;;;;;3.72;2.42;;;;;;;;;;2274173;59;22165;-76
2022/08/12 07:45:16;;;;;;;7.12;2.67;;;;;;;;;;2507047;54;21043;-79
2022/08/12 07:47:43;;;;;;;4.05;2.50;;;;;;;;;;2507023;55;21071;-79
2022/08/12 07:50:10;;;;;;;9.95;2.62;;;;;;;;;;2506840;54;21090;-80
2022/08/12 07:52:40;;;;;;;4.43;2.90;;;;;;;;;;2507260;55;21142;-78
2022/08/12 07:55:09;;;;;;;6.75;2.42;;;;;;;;;;2506947;54;21074;-78
2022/08/12 07:57:47;;;;;;;8.52;2.40;;;;;;;;;;2274478;59;21656;-78
2022/08/12 08:00:17;;;;;;;4.53;2.58;;;;;;;;;;2275439;59;21478;-80
2022/08/12 08:02:44;;;;;;;5.25;2.87;;;;;;;;;;2506233;55;21094;-77
2022/08/12 08:05:11;;;;;;;5.45;2.90;;;;;;;;;;2274929;59;21146;-79
2022/08/12 08:07:41;;;;;;;3.60;2.45;;;;;;;;;;2273449;59;21071;-78
2022/08/12 08:10:10;;;;;;;3.05;2.55;;;;;;;;;;2506473;54;21165;-79
2022/08/12 08:12:53;;;;;;;5.05;2.37;;;;;;;;;;2274017;59;21078;-79
2022/08/12 08:15:20;;;;;;;5.70;2.50;;;;;;;;;;2274472;59;21095;-79
2022/08/12 08:18:00;;;;;;;4.78;2.35;;;;;;;;;;2503570;55;21556;-77
2022/08/12 08:20:28;;;;;;;3.50;2.40;;;;;;;;;;2273922;59;21142;-78
2022/08/12 08:22:57;;;;;;;7.22;2.78;;;;;;;;;;2272006;59;21202;-81
2022/08/12 08:25:29;;;;;;;3.83;2.50;;;;;;;;;;2274242;59;21222;-79
2022/08/12 08:27:58;;;;;;;6.43;2.50;;;;;;;;;;2275498;59;21131;-79
2022/08/12 08:30:25;;;;;;;8.18;2.25;;;;;;;;;;2507121;55;21170;-79
2022/08/12 08:32:52;;;;;;;3.97;2.90;;;;;;;;;;2275259;59;21162;-78
2022/08/12 08:35:21;;;;;;;4.80;2.40;;;;;;;;;;2274850;59;21079;-78
2022/08/12 08:37:49;;;;;;;5.07;2.47;;;;;;;;;;2275373;59;21071;-77
2022/08/12 08:43:02;;;;;;;3.53;2.58;;;;;;;;;;2275480;59;21031;-79
2022/08/12 08:45:29;;;;;;;4.25;2.70;;;;;;;;;;2274961;59;21067;-80
2022/08/12 08:47:58;;;;;;;6.30;2.65;;;;;;;;;;2506945;55;21574;-78
2022/08/12 08:50:25;;;;;;;4.75;2.75;;;;;;;;;;2274507;59;21233;-76
2022/08/12 08:52:52;;;;;;;5.15;2.40;;;;;;;;;;2274912;59;21066;-79
2022/08/12 08:55:19;;;;;;;3.12;2.17;;;;;;;;;;2506239;55;21615;-76
2022/08/12 08:57:49;;;;;;;5.32;2.30;;;;;;;;;;2274826;59;21142;-79
2022/08/12 09:00:17;;;;;;;3.15;2.30;;;;;;;;;;2506995;55;21194;-78
2022/08/12 09:02:44;;;;;;;3.55;1.80;;;;;;;;;;2274711;59;21071;-79
2022/08/12 09:05:11;;;;;;;3.85;2.55;;;;;;;;;;2274836;59;21079;-76
2022/08/12 09:07:43;;;;;;;5.07;2.33;;;;;;;;;;2275112;59;21097;-78
2022/08/12 09:10:11;;;;;;;4.65;2.30;;;;;;;;;;2275351;59;21181;-78
2022/08/12 09:15:24;;;;;;;4.00;2.53;;;;;;;;;;2274277;59;21075;-79
2022/08/12 09:20:29;;;;;;;6.87;2.60;;;;;;;;;;2355460;57;22082;-79
2022/08/12 09:22:57;;;;;;;2.80;2.28;;;;;;;;;;2621847;52;21055;-79
2022/08/12 09:25:25;;;;;;;3.53;2.85;;;;;;;;;;2628151;52;21090;-78
2022/08/12 09:27:52;;;;;;;2.92;2.40;;;;;;;;;;2375144;56;21130;-78
2022/08/12 09:30:20;;;;;;;3.12;2.28;;;;;;;;;;2628189;52;21042;-77
2022/08/12 09:32:49;;;;;;;7.68;2.83;;;;;;;;;;2374612;56;21363;-79
2022/08/12 09:35:19;;;;;;;3.95;2.47;;;;;;;;;;2628203;52;21094;-76
2022/08/12 09:37:47;;;;;;;5.60;2.35;;;;;;;;;;2626812;52;21067;-79
2022/08/12 09:40:15;;;;;;;2.60;2.03;;;;;;;;;;2374038;56;21142;-78
2022/08/12 09:45:30;;;;;;;3.55;2.20;;;;;;;;;;2374402;56;21940;-76
2022/08/12 09:48:00;;;;;;;4.35;2.08;;;;;;;;;;2626784;52;21048;-79
2022/08/12 09:50:28;;;;;;;7.32;2.47;;;;;;;;;;2628529;52;21035;-78
2022/08/12 09:53:04;;;;;;;2.97;2.08;;;;;;;;;;2375002;56;21043;-78
2022/08/12 09:55:32;;;;;;;2.58;2.15;;;;;;;;;;2374073;56;21062;-77
2022/08/12 09:57:59;;;;;;;3.62;2.50;;;;;;;;;;2375255;56;21051;-78
2022/08/12 10:00:26;;;;;;;5.05;2.40;;;;;;;;;;2374900;56;21553;-77
2022/08/12 10:03:00;;;;;;;2.60;2.40;;;;;;;;;;2374561;56;21137;-76
2022/08/12 10:05:31;;;;;;;3.25;1.87;;;;;;;;;;2625055;52;21565;-75
2022/08/12 10:07:59;;;;;;;2.72;1.70;;;;;;;;;;2628649;52;21059;-76
2022/08/12 10:10:27;;;;;;;3.67;2.17;;;;;;;;;;2375084;56;21141;-78
2022/08/12 10:15:43;;;;;;;2.62;1.87;;;;;;;;;;2374617;56;21516;-78
2022/08/12 10:18:11;;;;;;;2.80;1.98;;;;;;;;;;2374457;56;21063;-79
2022/08/12 10:20:38;;;;;;;2.30;2.10;;;;;;;;;;2373370;56;21576;-77
2022/08/12 10:23:05;;;;;;;2.75;2.00;;;;;;;;;;2374260;56;21051;-77
2022/08/12 10:31:03;;;;;;;3.60;1.92;;;;;;;;;;2373140;56;20979;-79
2022/08/12 10:33:32;;;;;;;5.70;1.90;;;;;;;;;;2627124;52;21612;-79
2022/08/12 10:35:59;;;;;;;3.60;2.03;;;;;;;;;;2625187;52;21530;-80
2022/08/12 10:38:26;;;;;;;3.72;1.83;;;;;;;;;;2626093;52;21086;-78
2022/08/12 10:43:42;;;;;;;2.92;2.25;;;;;;;;;;2371777;56;21054;-76
2022/08/12 10:46:09;;;;;;;5.50;1.90;;;;;;;;;;2625220;52;21055;-77
2022/08/12 10:48:37;;;;;;;3.72;2.20;;;;;;;;;;2373175;56;21051;-79
2022/08/12 10:51:04;;;;;;;3.03;2.17;;;;;;;;;;2373274;56;21058;-81
2022/08/12 10:53:32;;;;;;;2.30;1.87;;;;;;;;;;2625272;52;21055;-80
2022/08/12 10:55:59;;;;;;;4.95;1.70;;;;;;;;;;2372095;56;21367;-80
2022/08/12 10:58:27;;;;;;;4.95;2.15;;;;;;;;;;2625981;52;21109;-81
2022/08/12 11:00:54;;;;;;;19.85;3.08;;;;;;;;;;2372925;56;21039;-77
2022/08/12 11:03:21;;;;;;;2.30;1.75;;;;;;;;;;2625408;52;21952;-78
2022/08/12 11:05:49;;;;;;;4.43;1.87;;;;;;;;;;2625352;52;21054;-77
2022/08/12 11:08:18;;;;;;;3.85;1.87;;;;;;;;;;2624370;52;21064;-79
2022/08/12 11:10:45;;;;;;;6.47;2.53;;;;;;;;;;2373084;56;21121;-79
2022/08/12 11:13:12;;;;;;;3.30;2.08;;;;;;;;;;2372905;56;21054;-79
2022/08/12 11:15:39;;;;;;;4.57;2.12;;;;;;;;;;2625290;52;21074;-79
2022/08/12 11:18:07;;;;;;;2.50;1.87;;;;;;;;;;2373336;56;21554;-77
2022/08/12 11:20:34;;;;;;;2.03;1.73;;;;;;;;;;2373284;56;21588;-78
2022/08/12 11:23:01;;;;;;;4.10;2.33;;;;;;;;;;2371986;56;21271;-77
2022/08/12 11:25:28;;;;;;;3.40;1.80;;;;;;;;;;2624304;52;21131;-79
2022/08/12 11:27:55;;;;;;;3.33;1.98;;;;;;;;;;2625747;52;21054;-79
2022/08/12 11:30:23;;;;;;;2.80;2.30;;;;;;;;;;2372562;56;21047;-79
2022/08/12 11:32:50;;;;;;;3.35;2.10;;;;;;;;;;2372504;56;21086;-79
2022/08/12 11:35:17;;;;;;;2.45;1.73;;;;;;;;;;2371576;56;22228;-77
2022/08/12 11:37:44;;;;;;;6.05;2.10;;;;;;;;;;2372645;56;21576;-77
2022/08/12 11:40:11;;;;;;;4.03;2.35;;;;;;;;;;2373081;56;21596;-79
2022/08/12 11:42:38;;;;;;;7.03;1.90;;;;;;;;;;2373025;56;21110;-77
2022/08/12 11:45:06;;;;;;;2.03;1.58;;;;;;;;;;2372767;56;21043;-78
2022/08/12 11:47:33;;;;;;;2.12;1.92;;;;;;;;;;2371968;56;21549;-80
2022/08/12 11:50:00;;;;;;;2.85;1.77;;;;;;;;;;2494553;54;21145;-76
2022/08/12 11:52:27;;;;;;;1.83;1.65;;;;;;;;;;2300922;58;21070;-77
2022/08/12 11:54:54;;;;;;;2.28;1.58;;;;;;;;;;2300588;58;21074;-76
2022/08/12 11:57:21;;;;;;;2.85;2.20;;;;;;;;;;2299543;58;21066;-77
2022/08/12 11:59:48;;;;;;;3.45;1.80;;;;;;;;;;2300615;58;21055;-77
2022/08/12 12:02:15;;;;;;;2.47;2.03;;;;;;;;;;2300146;58;21639;-76
2022/08/12 12:04:43;;;;;;;7.45;2.58;;;;;;;;;;2299787;58;21063;-76
2022/08/12 12:07:10;;;;;;;1.98;1.77;;;;;;;;;;2296532;58;21172;-77
2022/08/12 12:09:37;;;;;;;3.20;1.85;;;;;;;;;;2300284;58;21070;-77
2022/08/12 12:12:05;;;;;;;4.10;2.00;;;;;;;;;;2300007;58;21062;-77
2022/08/12 12:14:32;;;;;;;2.40;1.70;;;;;;;;;;2300253;58;21617;-77
2022/08/12 12:16:59;;;;;;;5.43;1.90;;;;;;;;;;2299618;58;21071;-77
2022/08/12 12:19:26;;;;;;;2.28;1.90;;;;;;;;;;2300358;58;21074;-77
2022/08/12 12:21:53;;;;;;;3.12;1.98;;;;;;;;;;2300276;58;21066;-77
2022/08/12 12:24:20;;;;;;;2.17;1.77;;;;;;;;;;2536995;54;21153;-77
2022/08/12 12:26:47;;;;;;;4.62;2.03;;;;;;;;;;2300132;58;21142;-78
2022/08/12 12:29:14;;;;;;;10.52;2.08;;;;;;;;;;2300330;58;21054;-77
2022/08/12 12:31:41;;;;;;;2.15;1.70;;;;;;;;;;2300743;58;21751;-77
2022/08/12 12:34:08;;;;;;;3.03;2.00;;;;;;;;;;2300486;58;21142;-77
2022/08/12 12:36:35;;;;;;;1.95;1.75;;;;;;;;;;2299500;58;21074;-78
2022/08/12 12:39:02;;;;;;;3.00;1.60;;;;;;;;;;2300336;58;21122;-78
2022/08/12 12:41:29;;;;;;;4.43;2.00;;;;;;;;;;2299806;58;22040;-78
2022/08/12 12:43:57;;;;;;;2.50;1.87;;;;;;;;;;2300618;58;22324;-78
2022/08/12 12:46:24;;;;;;;2.33;1.52;;;;;;;;;;2299757;58;21684;-78
2022/08/12 12:48:51;;;;;;;2.40;2.20;;;;;;;;;;2300601;58;21632;-78
2022/08/12 12:51:18;;;;;;;3.30;1.62;;;;;;;;;;2300518;58;21070;-77
2022/08/12 12:53:46;;;;;;;2.67;1.87;;;;;;;;;;2539004;54;21059;-77
2022/08/12 12:56:19;;;;;;;3.00;1.83;;;;;;;;;;2298787;58;21130;-77
2022/08/12 12:58:48;;;;;;;1.77;1.67;;;;;;;;;;2300468;58;21380;-77
2022/08/12 13:01:17;;;;;;;4.32;2.00;;;;;;;;;;2300349;58;21079;-79
2022/08/12 13:03:44;;;;;;;2.85;1.70;;;;;;;;;;2300203;58;21114;-78
2022/08/12 13:06:12;;;;;;;6.75;2.10;;;;;;;;;;2299607;58;21617;-79
2022/08/12 13:08:39;;;;;;;2.55;1.50;;;;;;;;;;2300581;58;21130;-78
2022/08/12 13:11:07;;;;;;;2.85;1.87;;;;;;;;;;2300663;58;21565;-77
2022/08/12 13:13:35;;;;;;;2.22;1.45;;;;;;;;;;2298865;58;21118;-78
2022/08/12 13:16:02;;;;;;;2.70;1.85;;;;;;;;;;2299760;58;21055;-79
2022/08/12 13:18:35;;;;;;;5.62;1.85;;;;;;;;;;2535757;54;21109;-79
2022/08/12 13:21:03;;;;;;;2.05;1.60;;;;;;;;;;2300610;58;21149;-79
2022/08/12 13:23:30;;;;;;;1.67;1.30;;;;;;;;;;2299957;58;21078;-77
2022/08/12 13:25:57;;;;;;;3.53;1.73;;;;;;;;;;2299571;58;21054;-78
2022/08/12 13:28:27;;;;;;;4.65;1.70;;;;;;;;;;2538084;54;21110;-79
2022/08/12 13:30:56;;;;;;;3.87;1.80;;;;;;;;;;2538930;54;21066;-79
2022/08/12 13:33:24;;;;;;;2.00;1.73;;;;;;;;;;2299512;58;21317;-78
2022/08/12 13:35:52;;;;;;;2.78;1.60;;;;;;;;;;2300097;58;21131;-78
2022/08/12 13:38:19;;;;;;;6.90;1.87;;;;;;;;;;2300179;58;21050;-79
2022/08/12 13:40:49;;;;;;;2.12;1.58;;;;;;;;;;2299513;58;21102;-78
2022/08/12 13:43:16;;;;;;;2.78;1.52;;;;;;;;;;2301736;58;21317;-80
2022/08/12 13:45:43;;;;;;;2.12;1.48;;;;;;;;;;2300759;58;21162;-78
2022/08/12 13:48:10;;;;;;;3.70;1.83;;;;;;;;;;2300720;58;21141;-78
2022/08/12 13:50:38;;;;;;;6.55;1.67;;;;;;;;;;2301666;58;21062;-79
2022/08/12 13:53:08;;;;;;;2.87;1.70;;;;;;;;;;2300989;58;21087;-79
2022/08/12 13:55:36;;;;;;;2.47;1.50;;;;;;;;;;2301585;58;21106;-79
2022/08/12 13:58:04;;;;;;;1.75;1.50;;;;;;;;;;2301411;58;21078;-80
2022/08/12 14:00:32;;;;;;;2.60;1.70;;;;;;;;;;2301928;58;21070;-81
2022/08/12 14:02:59;;;;;;;2.28;1.70;;;;;;;;;;2301886;58;21113;-80
2022/08/12 14:05:27;;;;;;;2.75;1.40;;;;;;;;;;2301075;58;21378;-79
2022/08/12 14:07:56;;;;;;;3.75;1.60;;;;;;;;;;2301026;58;21158;-80
2022/08/12 14:10:36;;;;;;;2.00;1.80;;;;;;;;;;2300147;58;21082;-79
2022/08/12 14:13:04;;;;;;;3.25;1.65;;;;;;;;;;2301008;58;21062;-77
2022/08/12 14:15:32;;;;;;;2.40;1.60;;;;;;;;;;2300491;58;21079;-77
2022/08/12 14:18:05;;;;;;;3.85;2.10;;;;;;;;;;2300542;58;21063;-79
2022/08/12 14:20:33;;;;;;;1.42;1.33;;;;;;;;;;2300449;58;21070;-78
2022/08/12 14:23:00;;;;;;;3.15;1.77;;;;;;;;;;2299128;58;21588;-77
2022/08/12 14:25:27;;;;;;;3.75;1.50;;;;;;;;;;2299620;58;21066;-78
2022/08/12 14:27:54;;;;;;;2.08;1.80;;;;;;;;;;2300677;58;21125;-79
2022/08/12 14:30:22;;;;;;;2.08;1.65;;;;;;;;;;2537784;54;21148;-80
2022/08/12 14:32:49;;;;;;;2.78;1.73;;;;;;;;;;2300539;58;21129;-78
2022/08/12 14:35:18;;;;;;;2.97;2.00;;;;;;;;;;2537557;54;21062;-80
2022/08/12 14:37:45;;;;;;;2.08;1.70;;;;;;;;;;2300028;58;21190;-77
2022/08/12 14:40:14;;;;;;;2.22;1.60;;;;;;;;;;2298879;58;21608;-76
2022/08/12 14:42:41;;;;;;;3.25;1.70;;;;;;;;;;2300113;58;21059;-77
2022/08/12 14:45:09;;;;;;;4.30;2.08;;;;;;;;;;2300251;58;21217;-78
2022/08/12 14:47:45;;;;;;;2.12;1.62;;;;;;;;;;2536879;54;21043;-77
2022/08/12 14:50:13;;;;;;;1.95;1.48;;;;;;;;;;2299952;58;21064;-77
2022/08/12 14:52:42;;;;;;;5.12;1.80;;;;;;;;;;2300591;58;21055;-77
2022/08/12 14:55:10;;;;;;;1.55;1.40;;;;;;;;;;2300330;58;21066;-76
2022/08/12 14:57:52;;;;;;;6.10;1.70;;;;;;;;;;2299085;58;21553;-77
2022/08/12 15:03:05;;;;;;;2.03;1.42;;;;;;;;;;2300636;58;21521;-78
2022/08/12 15:05:37;;;;;;;4.60;1.90;;;;;;;;;;2536266;54;21063;-76
2022/08/12 15:08:10;;;;;;;4.00;1.62;;;;;;;;;;2300094;58;21125;-76
2022/08/12 15:10:39;;;;;;;3.60;1.67;;;;;;;;;;2299818;58;21140;-77
2022/08/12 15:13:06;;;;;;;2.17;1.52;;;;;;;;;;2299421;58;21644;-77
2022/08/12 15:15:36;;;;;;;2.40;1.50;;;;;;;;;;2299815;58;21703;-77
2022/08/12 15:18:03;;;;;;;2.90;1.90;;;;;;;;;;2300401;58;21062;-76
2022/08/12 15:20:30;;;;;;;3.37;1.80;;;;;;;;;;2299054;58;21067;-77
2022/08/12 15:22:58;;;;;;;5.47;1.85;;;;;;;;;;2299372;58;21070;-77
2022/08/12 15:25:26;;;;;;;2.20;1.70;;;;;;;;;;2299811;58;21047;-77
2022/08/12 15:27:53;;;;;;;4.15;1.92;;;;;;;;;;2300305;58;21114;-79
2022/08/12 15:30:23;;;;;;;5.53;1.77;;;;;;;;;;2299910;58;21047;-76
2022/08/12 15:32:52;;;;;;;3.55;1.67;;;;;;;;;;2299516;58;21078;-77
2022/08/12 15:35:19;;;;;;;4.82;2.03;;;;;;;;;;2299943;58;21138;-78
2022/08/12 15:37:57;;;;;;;4.93;1.70;;;;;;;;;;2300480;58;21071;-77
2022/08/12 15:40:25;;;;;;;4.12;1.98;;;;;;;;;;2300316;58;21130;-76
2022/08/12 15:42:53;;;;;;;3.72;1.70;;;;;;;;;;2300087;58;21063;-76
2022/08/12 15:45:20;;;;;;;2.92;1.73;;;;;;;;;;2299480;58;21066;-77
2022/08/12 15:47:47;;;;;;;5.25;2.10;;;;;;;;;;2299871;58;21039;-76
2022/08/12 15:50:14;;;;;;;2.78;1.80;;;;;;;;;;2300005;58;21122;-79
2022/08/12 15:52:41;;;;;;;6.20;1.75;;;;;;;;;;2537758;54;21067;-78
2022/08/12 15:55:12;;;;;;;3.42;1.90;;;;;;;;;;2300509;58;21079;-78
2022/08/12 15:57:49;;;;;;;2.22;1.98;;;;;;;;;;2299747;58;21121;-78
2022/08/12 16:02:57;;;;;;;1.90;1.50;;;;;;;;;;2510397;54;22132;-77
2022/08/12 16:05:25;;;;;;;3.95;1.40;;;;;;;;;;2524637;55;21112;-77
2022/08/12 16:07:54;;;;;;;2.75;1.77;;;;;;;;;;2290616;58;21565;-77
2022/08/12 16:10:23;;;;;;;6.47;2.10;;;;;;;;;;2290411;58;21063;-78
2022/08/12 16:12:51;;;;;;;2.90;1.50;;;;;;;;;;2290484;58;21138;-80
2022/08/12 16:15:19;;;;;;;4.82;1.65;;;;;;;;;;2289153;58;21079;-79
2022/08/12 16:17:48;;;;;;;5.60;1.70;;;;;;;;;;2291651;58;21119;-80
2022/08/12 16:20:20;;;;;;;5.87;1.83;;;;;;;;;;2293455;58;21127;-81
2022/08/12 16:22:48;;;;;;;3.53;1.60;;;;;;;;;;2294072;58;21138;-80
2022/08/12 16:25:15;;;;;;;3.58;2.22;;;;;;;;;;2528015;54;21557;-80
2022/08/12 16:27:43;;;;;;;6.20;1.67;;;;;;;;;;2527496;55;21543;-79
2022/08/12 16:30:11;;;;;;;8.40;2.00;;;;;;;;;;2291438;58;21127;-79
2022/08/12 16:32:39;;;;;;;4.03;1.80;;;;;;;;;;2291656;58;21051;-79
2022/08/12 16:35:07;;;;;;;5.47;1.73;;;;;;;;;;2291447;58;21138;-80
2022/08/12 16:37:34;;;;;;;3.15;1.92;;;;;;;;;;2291051;58;21541;-79
2022/08/12 16:40:02;;;;;;;3.25;1.98;;;;;;;;;;2292136;58;21094;-81
2022/08/12 16:42:30;;;;;;;5.45;1.67;;;;;;;;;;2292172;58;21067;-82
2022/08/12 16:44:59;;;;;;;3.30;1.60;;;;;;;;;;2292600;58;21135;-79